sensor_id;sensor_type;location;lat;lon;timestamp;pressure;altitude;pressure_sealevel;temperature;humidity
11212;BME280;5663;50.864;12.096;2023-03-18T01:11:06;98876.88;;;10.30;50.63
11212;BME280;5663;50.864;12.096;2023-03-18T01:13:34;98863.88;;;10.30;50.37
11212;BME280;5663;50.864;12.096;2023-03-18T01:16:04;98868.91;;;10.33;50.49
11212;BME280;5663;50.864;12.096;2023-03-18T01:18:33;98850.63;;;10.19;50.26
11212;BME280;5663;50.864;12.096;2023-03-18T01:21:03;98867.22;;;10.32;50.11
11212;BME280;5663;50.864;12.096;2023-03-18T01:23:31;98861.84;;;10.35;49.95
11212;BME280;5663;50.864;12.096;2023-03-18T01:25:58;98871.31;;;10.36;49.89
11212;BME280;5663;50.864;12.096;2023-03-18T01:28:28;98865.19;;;10.38;50.19
11212;BME280;5663;50.864;12.096;2023-03-18T01:34:43;98880.88;;;10.36;50.19
11212;BME280;5663;50.864;12.096;2023-03-18T01:37:11;98882.63;;;10.35;50.29
11212;BME280;5663;50.864;12.096;2023-03-18T01:39:38;98886.06;;;10.36;50.17
11212;BME280;5663;50.864;12.096;2023-03-18T01:42:06;98885.22;;;10.35;50.33
11212;BME280;5663;50.864;12.096;2023-03-18T01:44:35;98884.56;;;10.32;51.32
11212;BME280;5663;50.864;12.096;2023-03-18T01:47:03;98883.91;;;10.28;51.22
11212;BME280;5663;50.864;12.096;2023-03-18T01:49:34;98880.56;;;10.26;51.12
11212;BME280;5663;50.864;12.096;2023-03-18T01:52:05;98873.84;;;10.22;50.94
11212;BME280;5663;50.864;12.096;2023-03-18T01:54:36;98886.06;;;10.20;50.76
11212;BME280;5663;50.864;12.096;2023-03-18T01:57:05;98887.94;;;10.18;50.95
11212;BME280;5663;50.864;12.096;2023-03-18T01:59:37;98883.75;;;10.16;50.90
11212;BME280;5663;50.864;12.096;2023-03-18T02:02:08;98886.59;;;10.11;51.28
11212;BME280;5663;50.864;12.096;2023-03-18T02:04:39;98893.63;;;10.09;51.45
11212;BME280;5663;50.864;12.096;2023-03-18T02:07:13;98811.97;;;9.53;52.00
11212;BME280;5663;50.864;12.096;2023-03-18T03:11:19;98946.88;;;9.21;53.23
11212;BME280;5663;50.864;12.096;2023-03-18T03:13:47;98948.56;;;9.22;53.10
11212;BME280;5663;50.864;12.096;2023-03-18T03:16:16;98946.88;;;9.21;52.93
11212;BME280;5663;50.864;12.096;2023-03-18T03:18:44;98957.09;;;9.24;53.41
11212;BME280;5663;50.864;12.096;2023-03-18T03:21:13;98952.00;;;9.23;53.22
11212;BME280;5663;50.864;12.096;2023-03-18T03:23:41;98954.50;;;9.24;52.91
11212;BME280;5663;50.864;12.096;2023-03-18T03:26:09;98958.63;;;9.28;52.58
11212;BME280;5663;50.864;12.096;2023-03-18T03:28:39;98961.91;;;9.32;52.80
11212;BME280;5663;50.864;12.096;2023-03-18T03:31:07;98962.00;;;9.30;52.78
11212;BME280;5663;50.864;12.096;2023-03-18T03:33:37;98967.91;;;9.32;52.76
11212;BME280;5663;50.864;12.096;2023-03-18T03:36:07;98972.19;;;9.33;52.56
11212;BME280;5663;50.864;12.096;2023-03-18T03:38:35;98964.41;;;9.33;52.67
11212;BME280;5663;50.864;12.096;2023-03-18T03:41:04;98956.56;;;9.35;53.02
11212;BME280;5663;50.864;12.096;2023-03-18T03:43:31;98963.50;;;9.34;52.84
11212;BME280;5663;50.864;12.096;2023-03-18T03:46:01;98976.47;;;9.34;52.86
11212;BME280;5663;50.864;12.096;2023-03-18T03:48:29;98950.94;;;9.27;52.83
11212;BME280;5663;50.864;12.096;2023-03-18T03:50:56;98967.91;;;9.32;52.92
11212;BME280;5663;50.864;12.096;2023-03-18T03:53:24;98973.09;;;9.32;52.89
11212;BME280;5663;50.864;12.096;2023-03-18T03:55:53;98941.25;;;9.13;52.76
11212;BME280;5663;50.864;12.096;2023-03-18T03:58:21;98950.56;;;9.17;52.78
11212;BME280;5663;50.864;12.096;2023-03-18T04:00:49;98975.84;;;9.29;52.72
11212;BME280;5663;50.864;12.096;2023-03-18T04:03:18;98973.19;;;9.31;53.01
11212;BME280;5663;50.864;12.096;2023-03-18T04:05:46;98975.69;;;9.32;52.43
11212;BME280;5663;50.864;12.096;2023-03-18T04:08:14;98981.66;;;9.34;52.39
11212;BME280;5663;50.864;12.096;2023-03-18T04:10:42;98979.97;;;9.33;52.20
11212;BME280;5663;50.864;12.096;2023-03-18T04:13:09;98979.97;;;9.33;52.26
11212;BME280;5663;50.864;12.096;2023-03-18T04:15:37;98982.75;;;9.30;52.79
11212;BME280;5663;50.864;12.096;2023-03-18T04:18:05;98987.16;;;9.28;52.51
11212;BME280;5663;50.864;12.096;2023-03-18T04:20:35;98986.41;;;9.26;53.18
11212;BME280;5663;50.864;12.096;2023-03-18T04:23:04;98983.19;;;9.21;52.72
11212;BME280;5663;50.864;12.096;2023-03-18T04:25:32;98979.88;;;9.19;53.04
11212;BME280;5663;50.864;12.096;2023-03-18T04:28:00;98983.44;;;9.17;53.87
11212;BME280;5663;50.864;12.096;2023-03-18T04:30:28;98983.53;;;9.15;54.41
11212;BME280;5663;50.864;12.096;2023-03-18T04:32:57;98978.63;;;9.09;54.05
11212;BME280;5663;50.864;12.096;2023-03-18T04:35:27;98985.69;;;9.07;53.66
11212;BME280;5663;50.864;12.096;2023-03-18T04:37:56;98984.00;;;9.06;53.84
11212;BME280;5663;50.864;12.096;2023-03-18T04:40:23;98980.34;;;9.10;53.34
11212;BME280;5663;50.864;12.096;2023-03-18T04:42:51;98981.09;;;9.12;53.45
11212;BME280;5663;50.864;12.096;2023-03-18T04:45:19;98984.50;;;9.12;53.86
11212;BME280;5663;50.864;12.096;2023-03-18T04:47:47;98980.34;;;9.10;53.78
11212;BME280;5663;50.864;12.096;2023-03-18T04:50:15;98988.88;;;9.12;53.97
11212;BME280;5663;50.864;12.096;2023-03-18T04:52:42;98993.38;;;9.08;54.09
11212;BME280;5663;50.864;12.096;2023-03-18T04:55:12;98989.19;;;9.06;53.72
11212;BME280;5663;50.864;12.096;2023-03-18T04:57:41;98995.22;;;9.06;53.31
11212;BME280;5663;50.864;12.096;2023-03-18T05:00:11;98969.22;;;8.91;54.11
11212;BME280;5663;50.864;12.096;2023-03-18T05:02:42;98992.38;;;9.11;53.49
11212;BME280;5663;50.864;12.096;2023-03-18T05:05:10;98990.72;;;9.10;53.56
11212;BME280;5663;50.864;12.096;2023-03-18T05:07:37;98969.91;;;8.94;53.98
11212;BME280;5663;50.864;12.096;2023-03-18T07:10:20;99019.13;;;10.11;51.95
11212;BME280;5663;50.864;12.096;2023-03-18T07:12:49;99023.34;;;10.29;52.00
11212;BME280;5663;50.864;12.096;2023-03-18T07:15:17;99024.41;;;10.41;51.49
11212;BME280;5663;50.864;12.096;2023-03-18T07:17:47;99025.06;;;10.45;51.25
11212;BME280;5663;50.864;12.096;2023-03-18T07:20:16;99030.66;;;10.53;51.40
11212;BME280;5663;50.864;12.096;2023-03-18T07:22:45;99037.22;;;10.60;51.39
11212;BME280;5663;50.864;12.096;2023-03-18T07:25:13;99044.50;;;10.69;51.19
11212;BME280;5663;50.864;12.096;2023-03-18T07:27:42;99049.84;;;10.82;50.94
11212;BME280;5663;50.864;12.096;2023-03-18T07:30:11;99048.31;;;10.94;50.66
11212;BME280;5663;50.864;12.096;2023-03-18T07:32:39;99044.22;;;11.04;50.76
11212;BME280;5663;50.864;12.096;2023-03-18T07:35:07;99044.91;;;11.07;50.69
11212;BME280;5663;50.864;12.096;2023-03-18T07:37:39;99046.03;;;11.18;50.21
11212;BME280;5663;50.864;12.096;2023-03-18T07:40:07;99042.91;;;11.27;50.88
11212;BME280;5663;50.864;12.096;2023-03-18T07:42:35;99052.75;;;11.36;50.51
11212;BME280;5663;50.864;12.096;2023-03-18T07:45:05;99039.56;;;11.39;50.64
11212;BME280;5663;50.864;12.096;2023-03-18T07:47:34;99058.00;;;11.50;50.73
11212;BME280;5663;50.864;12.096;2023-03-18T07:50:04;98933.84;;;10.94;50.61
11212;BME280;5663;50.864;12.096;2023-03-18T07:52:33;99050.84;;;11.82;51.44
11212;BME280;5663;50.864;12.096;2023-03-18T07:55:01;99047.31;;;11.98;50.86
11212;BME280;5663;50.864;12.096;2023-03-18T07:57:32;99050.66;;;12.14;50.90
11212;BME280;5663;50.864;12.096;2023-03-18T07:59:59;99059.19;;;12.30;50.97
11212;BME280;5663;50.864;12.096;2023-03-18T08:02:28;99057.56;;;12.42;50.66
11212;BME280;5663;50.864;12.096;2023-03-18T08:04:56;99058.56;;;12.54;50.55
11212;BME280;5663;50.864;12.096;2023-03-18T08:07:24;99043.44;;;12.59;50.16
11212;BME280;5663;50.864;12.096;2023-03-18T08:09:52;99065.00;;;12.75;50.19
11212;BME280;5663;50.864;12.096;2023-03-18T08:12:20;99063.56;;;12.84;49.84
11212;BME280;5663;50.864;12.096;2023-03-18T08:14:51;99065.88;;;12.89;49.93
11212;BME280;5663;50.864;12.096;2023-03-18T08:17:28;99045.41;;;12.82;49.89
11212;BME280;5663;50.864;12.096;2023-03-18T08:19:55;99056.13;;;13.05;49.68
11212;BME280;5663;50.864;12.096;2023-03-18T08:22:23;99040.66;;;13.02;49.21
11212;BME280;5663;50.864;12.096;2023-03-18T08:24:51;99045.66;;;13.05;48.95
11212;BME280;5663;50.864;12.096;2023-03-18T08:27:21;99057.16;;;13.15;49.11
11212;BME280;5663;50.864;12.096;2023-03-18T08:29:53;99065.34;;;13.23;48.62
11212;BME280;5663;50.864;12.096;2023-03-18T08:32:21;99070.19;;;13.29;48.84
11212;BME280;5663;50.864;12.096;2023-03-18T08:34:58;99067.69;;;13.41;48.77
11212;BME280;5663;50.864;12.096;2023-03-18T08:37:29;99061.72;;;13.51;48.58
11212;BME280;5663;50.864;12.096;2023-03-18T08:40:00;99068.81;;;13.62;49.24
11212;BME280;5663;50.864;12.096;2023-03-18T08:42:34;99064.22;;;13.78;49.12
11212;BME280;5663;50.864;12.096;2023-03-18T08:45:11;99033.06;;;13.75;48.60
11212;BME280;5663;50.864;12.096;2023-03-18T08:47:45;99065.13;;;14.03;48.96
11212;BME280;5663;50.864;12.096;2023-03-18T08:50:17;99047.97;;;13.99;48.65
11212;BME280;5663;50.864;12.096;2023-03-18T08:52:57;99037.09;;;14.05;48.56
11212;BME280;5663;50.864;12.096;2023-03-18T08:55:29;99064.50;;;14.36;48.38
11212;BME280;5663;50.864;12.096;2023-03-18T08:58:05;99063.34;;;14.53;48.58
11212;BME280;5663;50.864;12.096;2023-03-18T09:00:36;99057.84;;;14.69;48.23
11212;BME280;5663;50.864;12.096;2023-03-18T09:03:09;99056.13;;;14.81;48.08
11212;BME280;5663;50.864;12.096;2023-03-18T09:05:47;99066.59;;;14.92;47.54
11212;BME280;5663;50.864;12.096;2023-03-18T09:08:16;99063.13;;;15.04;48.28
11212;BME280;5663;50.864;12.096;2023-03-18T09:23:22;99072.94;;;15.93;46.85
11212;BME280;5663;50.864;12.096;2023-03-18T09:25:52;99068.97;;;16.10;47.08
11212;BME280;5663;50.864;12.096;2023-03-18T09:28:26;99056.69;;;16.22;45.88
11212;BME280;5663;50.864;12.096;2023-03-18T09:30:56;99068.22;;;16.42;46.13
11212;BME280;5663;50.864;12.096;2023-03-18T09:33:28;99072.50;;;16.54;45.45
11212;BME280;5663;50.864;12.096;2023-03-18T09:36:08;99062.66;;;16.67;45.14
11212;BME280;5663;50.864;12.096;2023-03-18T09:38:45;99078.41;;;16.79;45.19
11212;BME280;5663;50.864;12.096;2023-03-18T09:41:27;99079.53;;;16.97;45.67
11212;BME280;5663;50.864;12.096;2023-03-18T09:44:13;99065.59;;;17.17;45.07
11212;BME280;5663;50.864;12.096;2023-03-18T09:47:05;99072.50;;;17.39;44.87
11212;BME280;5663;50.864;12.096;2023-03-18T09:49:57;99069.59;;;17.63;44.75
11212;BME280;5663;50.864;12.096;2023-03-18T09:52:30;99066.84;;;17.86;45.06
11212;BME280;5663;50.864;12.096;2023-03-18T09:55:20;99063.06;;;18.09;42.76
11212;BME280;5663;50.864;12.096;2023-03-18T09:57:54;99062.00;;;18.21;43.73
11212;BME280;5663;50.864;12.096;2023-03-18T10:00:31;99063.38;;;18.26;43.38
11212;BME280;5663;50.864;12.096;2023-03-18T10:03:05;99063.94;;;18.29;43.32
11212;BME280;5663;50.864;12.096;2023-03-18T10:05:48;99058.84;;;18.28;43.68
11212;BME280;5663;50.864;12.096;2023-03-18T10:08:24;99066.44;;;18.31;43.52
11212;BME280;5663;50.864;12.096;2023-03-18T10:11:05;99053.41;;;18.19;43.77
11212;BME280;5663;50.864;12.096;2023-03-18T10:13:41;99069.78;;;18.33;44.01
11212;BME280;5663;50.864;12.096;2023-03-18T10:16:20;99066.75;;;18.37;44.24
11212;BME280;5663;50.864;12.096;2023-03-18T10:18:53;99052.59;;;18.29;44.16
11212;BME280;5663;50.864;12.096;2023-03-18T10:21:37;99063.69;;;18.42;44.52
11212;BME280;5663;50.864;12.096;2023-03-18T10:24:26;99067.34;;;18.60;44.10
11212;BME280;5663;50.864;12.096;2023-03-18T10:27:39;99068.19;;;18.70;43.82
11212;BME280;5663;50.864;12.096;2023-03-18T10:30:36;99083.22;;;18.89;45.02
11212;BME280;5663;50.864;12.096;2023-03-18T10:33:13;99073.63;;;18.98;44.34
11212;BME280;5663;50.864;12.096;2023-03-18T10:35:47;99056.59;;;18.92;43.91
11212;BME280;5663;50.864;12.096;2023-03-18T10:38:22;99072.81;;;19.07;44.37
11212;BME280;5663;50.864;12.096;2023-03-18T10:40:50;99072.25;;;19.13;43.88
11212;BME280;5663;50.864;12.096;2023-03-18T10:43:23;99068.50;;;19.16;44.33
11212;BME280;5663;50.864;12.096;2023-03-18T10:45:59;99067.50;;;19.27;44.52
11212;BME280;5663;50.864;12.096;2023-03-18T10:48:31;99071.53;;;19.31;44.32
11212;BME280;5663;50.864;12.096;2023-03-18T10:51:06;99073.59;;;19.37;43.86
11212;BME280;5663;50.864;12.096;2023-03-18T10:53:39;99052.66;;;19.26;43.98
11212;BME280;5663;50.864;12.096;2023-03-18T10:56:11;99069.28;;;19.45;43.50
11212;BME280;5663;50.864;12.096;2023-03-18T10:58:41;99064.59;;;19.39;43.45
11212;BME280;5663;50.864;12.096;2023-03-18T11:01:11;99063.72;;;19.49;42.88
11212;BME280;5663;50.864;12.096;2023-03-18T11:03:43;99066.78;;;19.63;43.01
11212;BME280;5663;50.864;12.096;2023-03-18T11:06:15;99067.56;;;19.74;43.18
11212;BME280;5663;50.864;12.096;2023-03-18T11:08:46;99066.03;;;19.81;43.05
11212;BME280;5663;50.864;12.096;2023-03-18T11:11:25;99071.41;;;19.89;43.08
11212;BME280;5663;50.864;12.096;2023-03-18T11:13:56;99047.56;;;19.81;43.43
11212;BME280;5663;50.864;12.096;2023-03-18T11:16:28;99036.59;;;19.76;43.45
11212;BME280;5663;50.864;12.096;2023-03-18T11:18:57;99063.16;;;20.02;43.66
11212;BME280;5663;50.864;12.096;2023-03-18T11:21:25;99065.66;;;20.03;43.98
11212;BME280;5663;50.864;12.096;2023-03-18T12:26:06;99013.19;;;21.77;41.24
11212;BME280;5663;50.864;12.096;2023-03-18T12:28:42;98989.22;;;21.79;42.80
11212;BME280;5663;50.864;12.096;2023-03-18T12:31:46;99023.66;;;22.29;42.11
11212;BME280;5663;50.864;12.096;2023-03-18T12:34:26;99022.72;;;22.38;41.59
11212;BME280;5663;50.864;12.096;2023-03-18T12:37:07;99016.56;;;22.38;40.15
11212;BME280;5663;50.864;12.096;2023-03-18T12:40:28;99003.66;;;22.43;41.18
11212;BME280;5663;50.864;12.096;2023-03-18T12:43:40;99012.28;;;22.45;42.22
11212;BME280;5663;50.864;12.096;2023-03-18T12:46:23;98999.31;;;22.34;41.46
11212;BME280;5663;50.864;12.096;2023-03-18T12:48:58;99011.59;;;22.35;41.07
11212;BME280;5663;50.864;12.096;2023-03-18T12:51:42;99005.78;;;22.31;40.72
11212;BME280;5663;50.864;12.096;2023-03-18T12:54:15;99007.63;;;22.31;40.12
11212;BME280;5663;50.864;12.096;2023-03-18T12:56:49;99002.00;;;22.42;40.31
11212;BME280;5663;50.864;12.096;2023-03-18T12:59:30;98989.09;;;22.47;41.20
11212;BME280;5663;50.864;12.096;2023-03-18T13:02:19;98976.19;;;22.52;40.11
11212;BME280;5663;50.864;12.096;2023-03-18T13:04:58;98993.09;;;22.59;39.90
11212;BME280;5663;50.864;12.096;2023-03-18T13:07:35;98993.41;;;22.48;40.49
11212;BME280;5663;50.864;12.096;2023-03-18T13:10:12;98990.03;;;22.30;40.70
11212;BME280;5663;50.864;12.096;2023-03-18T13:12:42;98980.03;;;22.07;41.37
11212;BME280;5663;50.864;12.096;2023-03-18T13:15:22;98986.66;;;22.03;41.56
11212;BME280;5663;50.864;12.096;2023-03-18T13:17:57;98990.94;;;21.96;40.98
11212;BME280;5663;50.864;12.096;2023-03-18T13:20:29;98991.56;;;21.90;40.86
11212;BME280;5663;50.864;12.096;2023-03-18T13:23:24;98992.88;;;21.94;40.93
11212;BME280;5663;50.864;12.096;2023-03-18T13:26:04;98974.06;;;22.05;40.90
11212;BME280;5663;50.864;12.096;2023-03-18T13:28:46;98983.81;;;22.47;40.39
11212;BME280;5663;50.864;12.096;2023-03-18T13:31:37;98957.94;;;22.57;40.02
11212;BME280;5663;50.864;12.096;2023-03-18T13:34:53;98976.56;;;22.98;41.12
11212;BME280;5663;50.864;12.096;2023-03-18T13:40:44;98971.22;;;23.15;39.14
11212;BME280;5663;50.864;12.096;2023-03-18T13:43:19;98959.44;;;23.17;40.01
11212;BME280;5663;50.864;12.096;2023-03-18T13:45:49;98966.88;;;23.22;40.61
11212;BME280;5663;50.864;12.096;2023-03-18T13:48:23;98963.22;;;23.31;40.34
11212;BME280;5663;50.864;12.096;2023-03-18T13:50:57;98954.25;;;23.32;40.17
11212;BME280;5663;50.864;12.096;2023-03-18T13:53:28;98962.91;;;23.34;38.86
11212;BME280;5663;50.864;12.096;2023-03-18T13:56:04;98960.72;;;23.29;38.68
11212;BME280;5663;50.864;12.096;2023-03-18T13:58:41;98939.03;;;23.18;39.33
11212;BME280;5663;50.864;12.096;2023-03-18T14:01:37;98961.91;;;23.35;38.06
11212;BME280;5663;50.864;12.096;2023-03-18T14:04:30;98959.06;;;23.36;38.87
11212;BME280;5663;50.864;12.096;2023-03-18T14:07:15;98955.41;;;23.38;38.51
11212;BME280;5663;50.864;12.096;2023-03-18T14:09:52;98959.88;;;23.37;38.10
11212;BME280;5663;50.864;12.096;2023-03-18T14:12:36;98950.94;;;23.38;39.21
11212;BME280;5663;50.864;12.096;2023-03-18T14:18:23;98952.09;;;23.35;38.88
11212;BME280;5663;50.864;12.096;2023-03-18T14:20:59;98924.78;;;23.19;37.99
11212;BME280;5663;50.864;12.096;2023-03-18T14:23:42;98947.34;;;23.23;38.10
11212;BME280;5663;50.864;12.096;2023-03-18T14:26:21;98946.34;;;23.16;38.97
11212;BME280;5663;50.864;12.096;2023-03-18T14:28:54;98943.88;;;23.14;39.22
11212;BME280;5663;50.864;12.096;2023-03-18T14:31:35;98942.38;;;23.03;38.93
11212;BME280;5663;50.864;12.096;2023-03-18T14:34:24;98944.06;;;22.96;38.46
11212;BME280;5663;50.864;12.096;2023-03-18T14:37:24;98937.91;;;22.87;39.24
11212;BME280;5663;50.864;12.096;2023-03-18T14:40:02;98946.50;;;22.90;39.07
11212;BME280;5663;50.864;12.096;2023-03-18T14:42:42;98947.69;;;22.87;39.26
11212;BME280;5663;50.864;12.096;2023-03-18T14:45:16;98945.69;;;22.89;38.81
11212;BME280;5663;50.864;12.096;2023-03-18T14:47:48;98947.34;;;22.90;38.63
11212;BME280;5663;50.864;12.096;2023-03-18T14:50:27;98950.34;;;22.95;40.21
11212;BME280;5663;50.864;12.096;2023-03-18T14:53:02;98946.72;;;22.96;40.26
11212;BME280;5663;50.864;12.096;2023-03-18T14:55:33;98919.84;;;22.75;39.25
11212;BME280;5663;50.864;12.096;2023-03-18T14:58:02;98947.19;;;22.83;38.85
11212;BME280;5663;50.864;12.096;2023-03-18T15:00:33;98925.81;;;22.77;38.64
11212;BME280;5663;50.864;12.096;2023-03-18T15:03:04;98947.03;;;22.93;38.58
11212;BME280;5663;50.864;12.096;2023-03-18T15:06:00;98939.75;;;22.95;38.65
11212;BME280;5663;50.864;12.096;2023-03-18T15:08:33;98905.91;;;22.81;38.98
11212;BME280;5663;50.864;12.096;2023-03-18T15:11:04;98942.06;;;23.06;38.75
11212;BME280;5663;50.864;12.096;2023-03-18T15:13:34;98929.78;;;23.05;38.83
11212;BME280;5663;50.864;12.096;2023-03-18T15:16:11;98921.81;;;22.97;38.35
11212;BME280;5663;50.864;12.096;2023-03-18T15:18:39;98919.69;;;22.93;38.75
11212;BME280;5663;50.864;12.096;2023-03-18T15:21:11;98931.44;;;23.06;38.60
11212;BME280;5663;50.864;12.096;2023-03-18T15:23:46;98932.94;;;22.93;37.68
11212;BME280;5663;50.864;12.096;2023-03-18T15:26:19;98947.19;;;22.83;37.97
11212;BME280;5663;50.864;12.096;2023-03-18T15:28:54;98945.56;;;22.66;39.21
11212;BME280;5663;50.864;12.096;2023-03-18T15:31:27;98950.00;;;22.49;40.87
11212;BME280;5663;50.864;12.096;2023-03-18T15:34:04;98953.31;;;22.35;41.05
11212;BME280;5663;50.864;12.096;2023-03-18T15:36:42;98951.28;;;22.21;40.39
11212;BME280;5663;50.864;12.096;2023-03-18T15:39:27;98949.97;;;22.17;40.75
11212;BME280;5663;50.864;12.096;2023-03-18T15:41:56;98950.97;;;22.16;41.64
11212;BME280;5663;50.864;12.096;2023-03-18T15:44:28;98942.19;;;22.15;40.99
11212;BME280;5663;50.864;12.096;2023-03-18T15:47:03;98940.50;;;22.14;40.33
11212;BME280;5663;50.864;12.096;2023-03-18T15:49:43;98942.31;;;22.13;40.52
11212;BME280;5663;50.864;12.096;2023-03-18T15:52:15;98943.97;;;22.06;40.46
11212;BME280;5663;50.864;12.096;2023-03-18T15:54:47;98940.28;;;21.99;40.12
11212;BME280;5663;50.864;12.096;2023-03-18T15:57:24;98940.94;;;21.93;40.66
11212;BME280;5663;50.864;12.096;2023-03-18T15:59:56;98940.75;;;21.78;40.91
11212;BME280;5663;50.864;12.096;2023-03-18T16:02:26;98938.53;;;21.74;40.72
11212;BME280;5663;50.864;12.096;2023-03-18T16:05:04;98943.16;;;21.63;41.12
11212;BME280;5663;50.864;12.096;2023-03-18T16:07:33;98939.44;;;21.48;41.45
11212;BME280;5663;50.864;12.096;2023-03-18T16:10:02;98941.38;;;21.38;41.10
11212;BME280;5663;50.864;12.096;2023-03-18T16:12:32;98934.34;;;21.29;41.81
11212;BME280;5663;50.864;12.096;2023-03-18T16:15:02;98943.88;;;21.22;42.02
11212;BME280;5663;50.864;12.096;2023-03-18T16:17:32;98921.97;;;21.03;43.33
11212;BME280;5663;50.864;12.096;2023-03-18T16:20:13;98945.78;;;21.03;42.46
11212;BME280;5663;50.864;12.096;2023-03-18T16:22:43;98957.25;;;20.94;42.49
11212;BME280;5663;50.864;12.096;2023-03-18T17:26:54;98996.91;;;16.69;51.97
11212;BME280;5663;50.864;12.096;2023-03-18T17:29:24;98906.97;;;15.91;52.46
11212;BME280;5663;50.864;12.096;2023-03-18T17:31:52;99000.72;;;16.33;52.82
11212;BME280;5663;50.864;12.096;2023-03-18T17:34:21;98990.03;;;16.13;53.23
11212;BME280;5663;50.864;12.096;2023-03-18T17:36:49;99003.16;;;16.02;53.47
11212;BME280;5663;50.864;12.096;2023-03-18T17:39:17;98999.25;;;15.85;53.87
11212;BME280;5663;50.864;12.096;2023-03-18T17:41:44;99004.88;;;15.69;54.05
11212;BME280;5663;50.864;12.096;2023-03-18T17:44:24;99008.03;;;15.50;54.27
11212;BME280;5663;50.864;12.096;2023-03-18T17:46:54;98994.44;;;15.23;54.29
11212;BME280;5663;50.864;12.096;2023-03-18T17:49:23;99009.56;;;15.19;54.64
11212;BME280;5663;50.864;12.096;2023-03-18T17:51:52;99013.09;;;15.07;54.74
11212;BME280;5663;50.864;12.096;2023-03-18T17:54:23;99008.78;;;14.95;55.06
11212;BME280;5663;50.864;12.096;2023-03-18T17:56:51;99019.34;;;14.82;55.28
11212;BME280;5663;50.864;12.096;2023-03-18T17:59:20;98980.25;;;14.44;55.84
11212;BME280;5663;50.864;12.096;2023-03-18T18:01:48;99021.84;;;14.60;56.09
11212;BME280;5663;50.864;12.096;2023-03-18T18:04:19;99027.63;;;14.52;56.16
11212;BME280;5663;50.864;12.096;2023-03-18T18:06:48;99020.66;;;14.40;56.91
11212;BME280;5663;50.864;12.096;2023-03-18T18:09:16;99029.91;;;14.33;57.44
11212;BME280;5663;50.864;12.096;2023-03-18T18:11:46;99030.56;;;14.23;57.38
11212;BME280;5663;50.864;12.096;2023-03-18T18:14:17;99032.66;;;14.18;57.22
11212;BME280;5663;50.864;12.096;2023-03-18T18:16:49;99026.66;;;14.05;57.20
11212;BME280;5663;50.864;12.096;2023-03-18T18:19:17;99028.97;;;13.97;57.43
11212;BME280;5663;50.864;12.096;2023-03-18T18:21:45;99027.09;;;13.86;57.95
11212;BME280;5663;50.864;12.096;2023-03-18T18:24:17;99028.56;;;13.77;58.00
11212;BME280;5663;50.864;12.096;2023-03-18T18:26:46;99027.72;;;13.64;57.90
11212;BME280;5663;50.864;12.096;2023-03-18T18:29:18;99030.91;;;13.57;58.20
11212;BME280;5663;50.864;12.096;2023-03-18T18:31:48;99029.72;;;13.48;58.87
11212;BME280;5663;50.864;12.096;2023-03-18T18:34:19;99029.41;;;13.40;58.73
11212;BME280;5663;50.864;12.096;2023-03-18T18:36:47;99026.94;;;13.25;58.36
11212;BME280;5663;50.864;12.096;2023-03-18T18:39:16;99028.59;;;13.26;58.63
11212;BME280;5663;50.864;12.096;2023-03-18T18:41:44;99030.84;;;13.18;59.20
11212;BME280;5663;50.864;12.096;2023-03-18T18:44:12;99019.97;;;12.99;59.34
11212;BME280;5663;50.864;12.096;2023-03-18T18:46:40;99024.22;;;13.00;59.41
11212;BME280;5663;50.864;12.096;2023-03-18T18:49:14;99034.69;;;13.00;59.46
11212;BME280;5663;50.864;12.096;2023-03-18T18:51:47;99040.50;;;12.91;59.78
11212;BME280;5663;50.864;12.096;2023-03-18T18:54:15;99034.97;;;12.82;59.45
11212;BME280;5663;50.864;12.096;2023-03-18T18:56:42;99035.56;;;12.73;59.56
11212;BME280;5663;50.864;12.096;2023-03-18T18:59:20;99041.38;;;12.64;60.04
11212;BME280;5663;50.864;12.096;2023-03-18T19:01:49;99029.88;;;12.54;60.10
11212;BME280;5663;50.864;12.096;2023-03-18T19:04:19;99008.69;;;12.31;60.02
11212;BME280;5663;50.864;12.096;2023-03-18T19:06:48;99039.50;;;12.39;60.07
11212;BME280;5663;50.864;12.096;2023-03-18T19:09:19;99018.31;;;12.17;60.18
11212;BME280;5663;50.864;12.096;2023-03-18T19:11:49;99044.13;;;12.21;60.59
11212;BME280;5663;50.864;12.096;2023-03-18T19:14:19;99039.28;;;12.15;60.71
11212;BME280;5663;50.864;12.096;2023-03-18T19:16:49;99041.41;;;12.08;60.86
11212;BME280;5663;50.864;12.096;2023-03-18T19:19:20;99046.38;;;11.99;61.30
11212;BME280;5663;50.864;12.096;2023-03-18T19:21:50;99046.84;;;11.91;61.30
11212;BME280;5663;50.864;12.096;2023-03-18T19:24:26;99053.28;;;11.86;61.91
11212;BME280;5663;50.864;12.096;2023-03-18T20:25:47;99097.53;;;10.97;64.72
11212;BME280;5663;50.864;12.096;2023-03-18T20:28:17;99097.09;;;11.04;64.20
11212;BME280;5663;50.864;12.096;2023-03-18T20:30:46;99097.59;;;11.11;63.96
11212;BME280;5663;50.864;12.096;2023-03-18T20:33:16;99088.69;;;11.15;63.78
11212;BME280;5663;50.864;12.096;2023-03-18T20:35:44;99086.84;;;11.17;63.89
11212;BME280;5663;50.864;12.096;2023-03-18T20:38:15;99090.59;;;11.27;63.88
11212;BME280;5663;50.864;12.096;2023-03-18T20:40:44;99089.13;;;11.38;63.26
11212;BME280;5663;50.864;12.096;2023-03-18T20:43:16;99087.91;;;11.43;63.14
11212;BME280;5663;50.864;12.096;2023-03-18T20:45:44;99097.34;;;11.46;63.09
11212;BME280;5663;50.864;12.096;2023-03-18T20:48:11;99095.47;;;11.48;63.02
11212;BME280;5663;50.864;12.096;2023-03-18T20:50:39;99090.53;;;11.43;62.95
11212;BME280;5663;50.864;12.096;2023-03-18T20:53:13;99091.47;;;11.42;62.95
11212;BME280;5663;50.864;12.096;2023-03-18T20:55:42;99096.00;;;11.39;62.95
11212;BME280;5663;50.864;12.096;2023-03-18T20:58:15;99097.84;;;11.37;62.92
11212;BME280;5663;50.864;12.096;2023-03-18T21:00:44;99092.19;;;11.30;62.85
11212;BME280;5663;50.864;12.096;2023-03-18T21:03:20;99092.91;;;11.18;63.00
11212;BME280;5663;50.864;12.096;2023-03-18T21:05:49;99105.88;;;11.33;62.85
11212;BME280;5663;50.864;12.096;2023-03-18T21:08:18;99081.00;;;11.14;62.92
11212;BME280;5663;50.864;12.096;2023-03-18T21:10:46;99072.97;;;11.02;63.09